createdAt,value
2022-08-09T00:01:05.005Z,96862.34
2022-08-09T00:04:05.900Z,96859.25
2022-08-09T00:06:23.697Z,96855.78
2022-08-09T00:08:50.166Z,96860.44
2022-08-09T00:11:25.072Z,96856.19
2022-08-09T00:13:54.196Z,96851.97
2022-08-09T00:16:26.383Z,96855.78
2022-08-09T00:19:02.974Z,96856.97
2022-08-09T00:21:35.688Z,96856.56
2022-08-09T00:24:02.115Z,96850.03
2022-08-09T00:26:32.688Z,96850.03
2022-08-09T00:28:59.873Z,96850.81
2022-08-09T00:31:56.762Z,96850.03
2022-08-09T00:34:12.808Z,96847.75
2022-08-09T00:36:41.654Z,96850.44
2022-08-09T00:39:16.750Z,96849.66
2022-08-09T00:44:09.986Z,96848.13
2022-08-09T00:44:30.366Z,96850.03
2022-08-09T00:47:04.786Z,96847.31
2022-08-09T00:49:32.118Z,96845.81
2022-08-09T00:52:05.137Z,96853.50
2022-08-09T00:54:35.371Z,96856.19
2022-08-09T00:57:02.804Z,96862.72
2022-08-09T00:59:41.345Z,96851.94
2022-08-09T01:02:12.567Z,96865.03
2022-08-09T01:04:39.522Z,96865.41
2022-08-09T01:07:13.962Z,96869.66
2022-08-09T01:09:40.503Z,96869.25
2022-08-09T01:12:08.556Z,96868.13
2022-08-09T01:14:37.856Z,96870.81
2022-08-09T01:17:04.699Z,96861.94
2022-08-09T01:19:42.769Z,96865.81
2022-08-09T01:22:18.302Z,96858.47
2022-08-09T01:24:52.152Z,96867.34
2022-08-09T01:27:18.760Z,96861.19
2022-08-09T01:29:55.090Z,96865.03
2022-08-09T01:32:31.247Z,96854.28
2022-08-09T01:34:59.757Z,96854.28
2022-08-09T01:37:43.156Z,96856.56
2022-08-09T01:40:23.208Z,96855.03
2022-08-09T01:42:55.062Z,96853.50
2022-08-09T01:45:22.409Z,96855.78
2022-08-09T01:47:49.715Z,96854.66
2022-08-09T01:50:16.284Z,96861.97
2022-08-09T01:52:43.606Z,96856.94
2022-08-09T01:55:10.017Z,96857.34
2022-08-09T01:57:40.387Z,96851.94
2022-08-09T02:00:34.817Z,96852.34
2022-08-09T02:02:58.774Z,96857.72
2022-08-09T02:05:38.126Z,96854.66
2022-08-09T02:08:39.387Z,96863.50
2022-08-09T02:10:57.957Z,96866.56
2022-08-09T02:13:37.680Z,96867.72
2022-08-09T02:16:06.906Z,96873.09
2022-08-09T02:18:35.150Z,96866.16
2022-08-09T02:21:01.549Z,96866.56
2022-08-09T02:23:27.955Z,96875.03
2022-08-09T02:25:58.526Z,96870.03
2022-08-09T02:28:26.484Z,96876.56
2022-08-09T02:30:53.794Z,96877.34
2022-08-09T02:33:20.501Z,96878.13
2022-08-09T02:36:03.350Z,96881.56
2022-08-09T02:38:30.651Z,96881.94
2022-08-09T02:40:57.142Z,96875.03
2022-08-09T02:43:23.608Z,96878.88
2022-08-09T02:45:55.159Z,96880.78
2022-08-09T02:48:30.726Z,96873.09
2022-08-09T02:50:57.672Z,96882.34
2022-08-09T02:53:25.997Z,96880.03
2022-08-09T02:55:58.642Z,96880.78
2022-08-09T02:58:35.285Z,96882.31
2022-08-09T03:01:04.367Z,96870.41
2022-08-09T03:03:37.231Z,96871.16
2022-08-09T03:06:19.089Z,96870.41
2022-08-09T03:08:47.980Z,96874.63
2022-08-09T03:11:15.584Z,96871.94
2022-08-09T03:14:02.002Z,96871.56
2022-08-09T03:16:28.442Z,96879.97
2022-08-09T03:18:55.707Z,96875.00
2022-08-09T03:21:25.805Z,96870.78
2022-08-09T03:24:04.003Z,96866.88
2022-08-09T03:26:32.093Z,96872.31
2022-08-09T03:28:58.654Z,96869.63
2022-08-09T03:31:25.147Z,96872.66
2022-08-09T03:33:54.031Z,96861.13
2022-08-09T03:36:21.480Z,96871.13
2022-08-09T03:38:54.280Z,96872.28
2022-08-09T03:41:20.682Z,96872.28
2022-08-09T03:44:08.119Z,96871.88
2022-08-09T03:46:35.433Z,96874.19
2022-08-09T03:49:04.110Z,96878.06
2022-08-09T03:51:55.588Z,96886.88
2022-08-09T03:54:29.528Z,96875.72
2022-08-09T03:56:57.835Z,96874.19
2022-08-09T03:59:42.797Z,96874.94
2022-08-09T04:02:10.950Z,96888.41
2022-08-09T04:04:38.953Z,96881.50
2022-08-09T04:07:05.505Z,96891.88
2022-08-09T04:09:47.625Z,96895.72
2022-08-09T04:12:30.430Z,96893.44
2022-08-09T04:15:01.809Z,96883.41
2022-08-09T04:17:37.714Z,96894.94
2022-08-09T04:20:05.729Z,96887.28
2022-08-09T04:22:33.917Z,96896.88
2022-08-09T04:25:01.267Z,96894.22
2022-08-09T04:27:28.984Z,96898.03
2022-08-09T04:29:55.583Z,96905.34
2022-08-09T04:32:31.398Z,96901.88
2022-08-09T04:35:01.381Z,96901.50
2022-08-09T04:37:45.406Z,96905.75
2022-08-09T04:40:28.517Z,96906.88
2022-08-09T04:42:59.366Z,96903.84
2022-08-09T04:45:25.783Z,96909.22
2022-08-09T04:48:01.041Z,96903.84
2022-08-09T04:50:35.007Z,96907.66
2022-08-09T04:53:04.613Z,96916.44
2022-08-09T04:55:39.178Z,96912.25
2022-08-09T04:58:17.518Z,96911.47
2022-08-09T05:00:44.581Z,96917.56
2022-08-09T05:03:30.153Z,96921.03
2022-08-09T05:06:07.076Z,96919.50
2022-08-09T05:08:34.002Z,96924.53
2022-08-09T05:11:01.265Z,96916.78
2022-08-09T05:13:29.052Z,96925.28
2022-08-09T05:15:59.404Z,96921.44
2022-08-09T05:18:37.642Z,96925.28
2022-08-09T05:21:20.891Z,96934.88
2022-08-09T05:23:53.989Z,96933.34
2022-08-09T05:26:36.118Z,96927.22
2022-08-09T05:29:17.713Z,96928.31
2022-08-09T05:31:48.292Z,96933.31
2022-08-09T05:34:22.438Z,96934.16
2022-08-09T05:36:56.776Z,96936.41
2022-08-09T05:39:29.324Z,96937.91
2022-08-09T05:41:56.103Z,96936.41
2022-08-09T05:44:29.120Z,96937.19
2022-08-09T05:46:59.351Z,96937.19
2022-08-09T05:50:23.463Z,96940.22
2022-08-09T05:52:12.161Z,96941.41
2022-08-09T05:54:39.727Z,96944.06
2022-08-09T05:57:07.212Z,96949.84
2022-08-09T05:59:39.289Z,96943.28
2022-08-09T06:02:08.284Z,96945.59
2022-08-09T06:04:36.422Z,96942.84
2022-08-09T06:07:02.839Z,96950.00
2022-08-09T06:09:53.953Z,96950.38
2022-08-09T06:12:15.636Z,96953.56
2022-08-09T06:14:43.630Z,96948.16
2022-08-09T06:17:10.274Z,96961.28
2022-08-09T06:19:36.945Z,96959.38
2022-08-09T06:22:03.458Z,96958.25
2022-08-09T06:24:29.906Z,96970.09
2022-08-09T06:26:57.673Z,96968.63
2022-08-09T06:29:24.396Z,96962.84
2022-08-09T06:32:09.261Z,96971.69
2022-08-09T06:34:39.596Z,96973.25
2022-08-09T06:37:06.599Z,96980.13
2022-08-09T06:39:48.275Z,96975.16
2022-08-09T06:42:24.825Z,96984.78
2022-08-09T06:44:55.022Z,96981.34
2022-08-09T06:47:24.022Z,96987.47
2022-08-09T06:50:14.912Z,96985.50
2022-08-09T06:52:36.880Z,96988.66
2022-08-09T06:55:09.970Z,96989.38
2022-08-09T06:58:01.573Z,96995.16
2022-08-09T07:00:52.617Z,96991.75
2022-08-09T07:03:11.905Z,96990.16
2022-08-09T07:05:58.087Z,97000.94
2022-08-09T07:08:24.923Z,96996.25
2022-08-09T07:10:51.357Z,97002.81
2022-08-09T07:13:27.617Z,97010.13
2022-08-09T07:16:43.270Z,97008.19
2022-08-09T07:18:42.153Z,97010.06
2022-08-09T07:21:09.421Z,97006.59
2022-08-09T07:23:36.666Z,97002.78
2022-08-09T07:26:22.774Z,97006.25
2022-08-09T07:29:09.187Z,96997.84
2022-08-09T07:31:38.439Z,96996.72
2022-08-09T07:34:20.121Z,96999.00
2022-08-09T07:36:47.616Z,96991.34
2022-08-09T07:39:19.745Z,96989.38
2022-08-09T07:41:47.085Z,96996.69
2022-08-09T07:44:14.751Z,96993.25
2022-08-09T07:46:41.568Z,96999.78
2022-08-09T07:49:15.341Z,96995.84
2022-08-09T07:52:04.275Z,96999.41
2022-08-09T07:54:30.263Z,96998.22
2022-08-09T07:56:58.813Z,97002.41
2022-08-09T07:59:34.320Z,96994.66
2022-08-09T08:02:16.629Z,96998.16
2022-08-09T08:04:53.771Z,96994.66
2022-08-09T08:08:42.765Z,96997.72
2022-08-09T08:10:08.934Z,97000.09
2022-08-09T08:12:42.490Z,96990.44
2022-08-09T08:15:10.315Z,96993.94
2022-08-09T08:17:53.009Z,96996.22
2022-08-09T08:20:28.574Z,96995.84
2022-08-09T08:23:01.294Z,96995.81
2022-08-09T08:25:43.883Z,97000.44
2022-08-09T08:28:14.476Z,96990.81
2022-08-09T08:30:41.723Z,96995.44
2022-08-09T08:33:11.999Z,96990.44
2022-08-09T08:35:58.707Z,96989.97
2022-08-09T08:38:26.360Z,96995.00
2022-08-09T08:40:54.613Z,96993.53
2022-08-09T08:43:21.035Z,96992.44
2022-08-09T08:45:51.580Z,96990.84
2022-08-09T08:48:29.233Z,97006.97
2022-08-09T08:50:57.495Z,96997.75
2022-08-09T08:53:25.149Z,96987.78
2022-08-09T08:55:58.768Z,96995.44
2022-08-09T08:58:27.359Z,96993.88
2022-08-09T09:00:56.307Z,96992.75
2022-08-09T09:03:33.050Z,96996.25
2022-08-09T09:06:05.099Z,96993.53
2022-08-09T09:08:32.071Z,96988.16
2022-08-09T09:11:04.204Z,96995.84
2022-08-09T09:13:34.608Z,96988.19
2022-08-09T09:16:08.442Z,96988.16
2022-08-09T09:18:36.175Z,96987.78
2022-08-09T09:21:02.588Z,96983.59
2022-08-09T09:23:37.591Z,96980.91
2022-08-09T09:26:12.264Z,96987.78
2022-08-09T09:29:04.419Z,96982.41
2022-08-09T09:32:04.361Z,96986.31
2022-08-09T09:34:11.865Z,96978.22
2022-08-09T09:36:51.024Z,96978.63
2022-08-09T09:39:20.343Z,96979.81
2022-08-09T09:41:49.310Z,96980.94
2022-08-09T09:44:25.784Z,96965.94
2022-08-09T09:46:52.778Z,96974.81
2022-08-09T09:49:31.642Z,96970.59
2022-08-09T09:52:05.667Z,96973.31
2022-08-09T09:54:43.198Z,96974.44
2022-08-09T09:58:02.644Z,96972.91
2022-08-09T10:00:01.701Z,96970.59
2022-08-09T10:02:28.128Z,96974.47
2022-08-09T10:04:55.140Z,96975.63
2022-08-09T10:07:23.941Z,96969.81
2022-08-09T10:09:54.919Z,96976.38
2022-08-09T10:12:43.628Z,96979.44
2022-08-09T10:15:17.173Z,96984.03
2022-08-09T10:17:56.327Z,96982.53
2022-08-09T10:20:26.922Z,96978.69
2022-08-09T10:23:00.797Z,96976.38
2022-08-09T10:25:34.511Z,96976.38
2022-08-09T10:28:13.889Z,96974.84
2022-08-09T10:32:20.945Z,96972.91
2022-08-09T10:34:04.952Z,96968.69
2022-08-09T10:36:14.790Z,96971.00
2022-08-09T10:38:56.014Z,96974.47
2022-08-09T10:41:26.251Z,96972.16
2022-08-09T10:44:01.222Z,96962.16
2022-08-09T10:46:28.694Z,96964.47
2022-08-09T10:48:56.382Z,96968.34
2022-08-09T10:51:29.436Z,96961.78
2022-08-09T10:53:56.306Z,96956.81
2022-08-09T10:56:23.312Z,96958.34
2022-08-09T10:58:49.766Z,96958.00
2022-08-09T11:03:06.793Z,96972.97
2022-08-09T11:04:03.951Z,96952.59
2022-08-09T11:06:32.704Z,96953.78
2022-08-09T11:09:15.445Z,96952.22
2022-08-09T11:11:43.623Z,96954.91
2022-08-09T11:14:18.377Z,96955.28
2022-08-09T11:16:55.152Z,96954.53
2022-08-09T11:19:23.023Z,96956.84
2022-08-09T11:22:19.038Z,96957.22
2022-08-09T11:24:52.170Z,96953.38
2022-08-09T11:27:25.486Z,96943.38
2022-08-09T11:30:32.579Z,96948.81
2022-08-09T11:32:51.896Z,96957.66
2022-08-09T11:35:26.347Z,96948.81
2022-08-09T11:38:01.454Z,96939.59
2022-08-09T11:40:28.016Z,96940.38
2022-08-09T11:42:56.082Z,96944.97
2022-08-09T11:45:22.494Z,96945.38
2022-08-09T11:47:48.902Z,96954.59
2022-08-09T11:50:55.475Z,96946.91
2022-08-09T11:53:57.686Z,96952.28
2022-08-09T11:55:52.086Z,96947.31
2022-08-09T11:58:19.690Z,96947.69
2022-08-09T12:00:56.624Z,96947.31
2022-08-09T12:03:55.590Z,96949.63
2022-08-09T12:06:09.629Z,96934.25
2022-08-09T12:08:37.242Z,96938.44
2022-08-09T12:11:05.235Z,96926.56
2022-08-09T12:14:07.572Z,96926.16
2022-08-09T12:16:37.550Z,96933.47
2022-08-09T12:19:05.080Z,96926.16
2022-08-09T12:21:38.646Z,96922.69
2022-08-09T12:24:08.885Z,96923.47
2022-08-09T12:26:36.161Z,96925.78
2022-08-09T12:29:29.687Z,96921.94
2022-08-09T12:32:01.817Z,96925.78
2022-08-09T12:34:29.758Z,96934.25
2022-08-09T12:36:59.173Z,96928.09
2022-08-09T12:39:42.626Z,96937.72
2022-08-09T12:42:09.062Z,96932.72
2022-08-09T12:44:37.438Z,96935.81
2022-08-09T12:47:04.828Z,96918.47
2022-08-09T12:49:31.377Z,96918.88
2022-08-09T12:52:00.950Z,96916.97
2022-08-09T12:54:29.701Z,96920.78
2022-08-09T12:56:57.565Z,96917.34
2022-08-09T12:59:23.966Z,96912.75
2022-08-09T13:01:50.469Z,96912.75
2022-08-09T13:04:37.072Z,96911.19
2022-08-09T13:07:03.300Z,96900.78
2022-08-09T13:09:30.540Z,96902.72
2022-08-09T13:12:01.920Z,96903.13
2022-08-09T13:14:42.383Z,96907.34
2022-08-09T13:17:14.047Z,96902.72
2022-08-09T13:20:07.706Z,96905.06
2022-08-09T13:22:36.326Z,96894.28
2022-08-09T13:25:05.494Z,96897.34
2022-08-09T13:27:40.164Z,96894.28
2022-08-09T13:30:51.315Z,96898.13
2022-08-09T13:33:06.900Z,96891.56
2022-08-09T13:36:24.666Z,96887.34
2022-08-09T13:38:54.597Z,96894.66
2022-08-09T13:41:46.064Z,96889.66
2022-08-09T13:43:57.375Z,96875.03
2022-08-09T13:47:16.570Z,96886.59
2022-08-09T13:49:18.393Z,96878.13
2022-08-09T13:52:00.648Z,96873.50
2022-08-09T13:54:27.703Z,96871.94
2022-08-09T13:56:56.837Z,96876.97
2022-08-09T13:59:25.346Z,96873.50
2022-08-09T14:02:01.019Z,96864.25
2022-08-09T14:04:28.846Z,96877.72
2022-08-09T14:06:55.402Z,96868.09
2022-08-09T14:09:22.132Z,96871.56
2022-08-09T14:11:48.755Z,96862.72
2022-08-09T14:14:25.679Z,96871.56
2022-08-09T14:16:54.016Z,96863.88
2022-08-09T14:19:20.655Z,96855.41
2022-08-09T14:21:48.936Z,96852.31
2022-08-09T14:24:22.088Z,96853.09
2022-08-09T14:26:58.433Z,96859.25
2022-08-09T14:30:03.838Z,96855.78
2022-08-09T14:32:13.075Z,96858.50
2022-08-09T14:34:40.880Z,96861.97
2022-08-09T14:37:08.121Z,96848.88
2022-08-09T14:39:45.090Z,96859.66
2022-08-09T14:42:12.732Z,96854.25
2022-08-09T14:44:48.638Z,96861.19
2022-08-09T14:47:39.777Z,96861.97
2022-08-09T14:50:09.557Z,96859.63
2022-08-09T14:52:37.469Z,96856.19
2022-08-09T14:55:03.884Z,96856.59
2022-08-09T14:57:31.745Z,96867.75
2022-08-09T15:00:09.282Z,96857.34
2022-08-09T15:02:36.478Z,96855.81
2022-08-09T15:05:03.999Z,96854.28
2022-08-09T15:07:35.202Z,96853.50
2022-08-09T15:10:07.858Z,96861.97
2022-08-09T15:12:37.812Z,96855.78
2022-08-09T15:15:04.224Z,96859.63
2022-08-09T15:17:41.904Z,96850.78
2022-08-09T15:20:11.911Z,96850.81
2022-08-09T15:22:46.456Z,96851.16
2022-08-09T15:25:14.376Z,96857.34
2022-08-09T15:27:54.913Z,96851.53
2022-08-09T15:30:57.711Z,96847.72
2022-08-09T15:33:15.177Z,96846.94
2022-08-09T15:36:01.918Z,96830.78
2022-08-09T15:38:32.111Z,96838.09
2022-08-09T15:40:58.508Z,96844.22
2022-08-09T15:43:24.990Z,96840.34
2022-08-09T15:46:28.419Z,96833.06
2022-08-09T15:48:58.917Z,96833.41
2022-08-09T15:52:02.702Z,96830.34
2022-08-09T15:54:31.595Z,96819.22
2022-08-09T15:57:04.759Z,96829.22
2022-08-09T15:59:37.214Z,96810.31
2022-08-09T16:02:03.851Z,96813.41
2022-08-09T16:04:32.050Z,96825.75
2022-08-09T16:07:01.890Z,96814.97
2022-08-09T16:09:51.192Z,96812.66
2022-08-09T16:12:15.655Z,96815.72
2022-08-09T16:14:42.260Z,96813.00
2022-08-09T16:17:09.173Z,96819.19
2022-08-09T16:19:36.441Z,96816.47
2022-08-09T16:22:03.414Z,96818.44
2022-08-09T16:24:33.487Z,96815.34
2022-08-09T16:27:00.650Z,96811.06
2022-08-09T16:29:37.763Z,96821.50
2022-08-09T16:32:33.077Z,96814.59
2022-08-09T16:34:59.888Z,96810.69
2022-08-09T16:37:53.045Z,96819.50
2022-08-09T16:40:20.559Z,96810.25
2022-08-09T16:43:02.404Z,96817.91
2022-08-09T16:45:28.863Z,96812.47
2022-08-09T16:48:43.171Z,96812.47
2022-08-09T16:50:58.903Z,96820.84
2022-08-09T16:53:32.440Z,96814.69
2022-08-09T16:56:04.838Z,96819.72
2022-08-09T16:58:35.873Z,96818.56
2022-08-09T17:01:03.314Z,96814.69
2022-08-09T17:03:30.377Z,96818.13
2022-08-09T17:06:08.997Z,96815.03
2022-08-09T17:08:59.995Z,96820.81
2022-08-09T17:11:40.854Z,96816.22
2022-08-09T17:14:08.461Z,96820.84
2022-08-09T17:16:53.148Z,96813.88
2022-08-09T17:19:20.841Z,96810.81
2022-08-09T17:21:47.495Z,96820.06
2022-08-09T17:24:27.343Z,96818.47
2022-08-09T17:26:56.358Z,96823.09
2022-08-09T17:29:24.649Z,96820.81
2022-08-09T17:31:57.890Z,96826.97
2022-08-09T17:35:04.430Z,96820.78
2022-08-09T17:37:19.635Z,96823.09
2022-08-09T17:39:53.175Z,96824.63
2022-08-09T17:42:41.803Z,96827.31
2022-08-09T17:45:15.919Z,96828.81
2022-08-09T17:47:55.477Z,96824.94
2022-08-09T17:50:36.059Z,96829.97
2022-08-09T17:53:04.676Z,96833.03
2022-08-09T17:55:48.652Z,96828.38
2022-08-09T17:58:16.787Z,96830.28
2022-08-09T18:00:46.637Z,96832.59
2022-08-09T18:03:14.847Z,96830.66
2022-08-09T18:05:44.250Z,96832.56
2022-08-09T18:08:11.192Z,96821.41
2022-08-09T18:10:39.744Z,96832.56
2022-08-09T18:13:53.706Z,96831.38
2022-08-09T18:16:08.141Z,96831.00
2022-08-09T18:18:35.705Z,96831.00
2022-08-09T18:21:22.905Z,96834.84
2022-08-09T18:24:11.013Z,96839.84
2022-08-09T18:26:37.855Z,96838.69
2022-08-09T18:30:41.056Z,96840.59
2022-08-09T18:31:55.746Z,96842.53
2022-08-09T18:34:24.246Z,96846.78
2022-08-09T18:36:53.288Z,96846.03
2022-08-09T18:39:20.121Z,96854.53
2022-08-09T18:41:52.524Z,96848.81
2022-08-09T18:44:20.198Z,96854.19
2022-08-09T18:47:04.237Z,96857.28
2022-08-09T18:49:41.586Z,96856.16
2022-08-09T18:52:11.769Z,96858.84
2022-08-09T18:54:38.462Z,96862.69
2022-08-09T18:57:06.653Z,96865.44
2022-08-09T18:59:37.564Z,96862.75
2022-08-09T19:02:15.163Z,96860.84
2022-08-09T19:04:41.666Z,96867.44
2022-08-09T19:07:14.101Z,96866.22
2022-08-09T19:10:13.708Z,96873.94
2022-08-09T19:12:29.359Z,96873.94
2022-08-09T19:14:55.863Z,96881.28
2022-08-09T19:17:22.937Z,96886.28
2022-08-09T19:19:49.356Z,96880.53
2022-08-09T19:22:25.148Z,96888.28
2022-08-09T19:25:09.621Z,96884.03
2022-08-09T19:27:39.532Z,96889.84
2022-08-09T19:30:22.961Z,96895.66
2022-08-09T19:32:53.521Z,96895.69
2022-08-09T19:35:21.503Z,96896.47
2022-08-09T19:37:56.454Z,96894.13
2022-08-09T19:40:24.284Z,96896.09
2022-08-09T19:43:01.183Z,96898.41
2022-08-09T19:45:38.878Z,96899.19
2022-08-09T19:48:06.889Z,96893.44
2022-08-09T19:50:49.639Z,96901.88
2022-08-09T19:53:18.061Z,96901.50
2022-08-09T19:56:01.984Z,96907.28
2022-08-09T19:58:30.023Z,96915.41
2022-08-09T20:00:56.820Z,96909.63
2022-08-09T20:04:13.911Z,96914.25
2022-08-09T20:06:23.617Z,96903.44
2022-08-09T20:08:57.197Z,96906.13
2022-08-09T20:11:26.050Z,96910.38
2022-08-09T20:13:53.925Z,96910.38
2022-08-09T20:16:38.057Z,96900.34
2022-08-09T20:19:48.868Z,96905.38
2022-08-09T20:21:56.258Z,96917.31
2022-08-09T20:24:29.838Z,96918.09
2022-08-09T20:27:00.475Z,96913.84
2022-08-09T20:29:31.099Z,96910.38
2022-08-09T20:32:31.340Z,96913.84
2022-08-09T20:34:49.962Z,96905.72
2022-08-09T20:37:21.358Z,96910.75
2022-08-09T20:40:15.255Z,96904.97
2022-08-09T20:42:35.666Z,96905.72
2022-08-09T20:46:00.901Z,96904.16
2022-08-09T20:47:50.934Z,96913.06
2022-08-09T20:50:47.567Z,96906.09
2022-08-09T20:53:03.741Z,96920.72
2022-08-09T20:55:30.162Z,96911.50
2022-08-09T20:58:20.623Z,96914.19
2022-08-09T21:00:49.529Z,96908.81
2022-08-09T21:03:28.685Z,96911.09
2022-08-09T21:06:05.927Z,96916.88
2022-08-09T21:08:36.265Z,96915.72
2022-08-09T21:11:02.875Z,96918.03
2022-08-09T21:13:59.063Z,96908.44
2022-08-09T21:16:19.782Z,96912.69
2022-08-09T21:19:16.932Z,96913.09
2022-08-09T21:21:52.868Z,96910.78
2022-08-09T21:24:19.335Z,96916.16
2022-08-09T21:26:55.090Z,96915.41
2022-08-09T21:29:22.720Z,96914.63
2022-08-09T21:31:49.820Z,96920.41
2022-08-09T21:34:21.068Z,96912.69
2022-08-09T21:36:56.533Z,96916.13
2022-08-09T21:39:28.183Z,96917.72
2022-08-09T21:42:10.720Z,96914.25
2022-08-09T21:44:37.925Z,96918.88
2022-08-09T21:47:04.520Z,96916.56
2022-08-09T21:49:40.475Z,96916.19
2022-08-09T21:52:14.650Z,96907.31
2022-08-09T21:54:46.315Z,96915.00
2022-08-09T21:57:37.084Z,96911.94
2022-08-09T22:00:02.588Z,96909.63
2022-08-09T22:02:29.729Z,96915.03
2022-08-09T22:05:17.143Z,96911.19
2022-08-09T22:07:51.916Z,96905.78
2022-08-09T22:10:23.182Z,96908.84
2022-08-09T22:12:50.517Z,96918.84
2022-08-09T22:15:18.430Z,96913.09
2022-08-09T22:17:47.208Z,96918.09
2022-08-09T22:20:16.834Z,96920.03
2022-08-09T22:22:48.490Z,96912.31
2022-08-09T22:26:06.159Z,96911.97
2022-08-09T22:28:01.518Z,96913.88
2022-08-09T22:30:33.785Z,96912.72
2022-08-09T22:33:00.209Z,96915.81
2022-08-09T22:36:01.271Z,96916.19
2022-08-09T22:38:14.705Z,96915.81
2022-08-09T22:40:49.191Z,96916.19
2022-08-09T22:44:00.628Z,96916.19
2022-08-09T22:48:11.988Z,96914.66
2022-08-09T22:48:59.904Z,96913.50
2022-08-09T22:51:28.375Z,96912.34
2022-08-09T22:54:02.259Z,96913.88
2022-08-09T22:56:34.134Z,96901.53
2022-08-09T22:59:00.960Z,96911.19
2022-08-09T23:01:32.656Z,96907.34
2022-08-09T23:04:06.099Z,96908.47
2022-08-09T23:06:36.060Z,96908.09
2022-08-09T23:09:02.692Z,96910.06
2022-08-09T23:11:29.110Z,96906.19
2022-08-09T23:13:55.512Z,96905.41
2022-08-09T23:16:21.919Z,96906.19
2022-08-09T23:18:48.321Z,96910.03
2022-08-09T23:21:14.734Z,96900.81
2022-08-09T23:24:05.601Z,96907.34
2022-08-09T23:26:33.106Z,96906.97
2022-08-09T23:28:59.520Z,96903.13
2022-08-09T23:31:25.925Z,96905.44
2022-08-09T23:33:52.429Z,96904.28
2022-08-09T23:36:18.842Z,96903.91
2022-08-09T23:38:48.906Z,96901.97
2022-08-09T23:41:28.659Z,96906.56
2022-08-09T23:43:55.830Z,96897.34
2022-08-09T23:46:22.341Z,96892.34
2022-08-09T23:48:48.744Z,96898.88
2022-08-09T23:51:15.140Z,96897.38
2022-08-09T23:53:41.559Z,96895.44
2022-08-09T23:56:07.977Z,96890.81
2022-08-09T23:58:35.428Z,96905.44
